createdAt,value
2024-01-07T00:00:42.964Z,1014.50
2024-01-07T00:01:42.971Z,1014.50
2024-01-07T00:02:42.951Z,1014.48
2024-01-07T00:03:43.035Z,1014.50
2024-01-07T00:04:42.951Z,1014.47
2024-01-07T00:05:42.997Z,1014.50
2024-01-07T00:06:42.950Z,1014.50
2024-01-07T00:07:42.937Z,1014.53
2024-01-07T00:08:42.932Z,1014.54
2024-01-07T00:09:42.958Z,1014.49
2024-01-07T00:10:42.935Z,1014.47
2024-01-07T00:11:42.931Z,1014.54
2024-01-07T00:12:42.984Z,1014.52
2024-01-07T00:13:42.934Z,1014.55
2024-01-07T00:14:42.931Z,1014.54
2024-01-07T00:15:42.972Z,1014.51
2024-01-07T00:16:42.939Z,1014.56
2024-01-07T00:17:43.082Z,1014.51
2024-01-07T00:18:43.267Z,1014.55
2024-01-07T00:19:42.984Z,1014.58
2024-01-07T00:20:45.580Z,1014.54
2024-01-07T00:21:42.957Z,1014.59
2024-01-07T00:22:42.933Z,1014.60
2024-01-07T00:23:42.931Z,1014.58
2024-01-07T00:24:42.944Z,1014.65
2024-01-07T00:25:42.939Z,1014.62
2024-01-07T00:26:42.935Z,1014.68
2024-01-07T00:27:42.995Z,1014.64
2024-01-07T00:28:42.932Z,1014.72
2024-01-07T00:29:42.916Z,1014.70
2024-01-07T00:30:43.014Z,1014.70
2024-01-07T00:31:43.056Z,1014.75
2024-01-07T00:32:42.939Z,1014.69
2024-01-07T00:33:43.002Z,1014.84
2024-01-07T00:34:43.020Z,1014.78
2024-01-07T00:35:42.929Z,1014.75
2024-01-07T00:36:42.940Z,1014.84
2024-01-07T00:37:42.910Z,1014.82
2024-01-07T00:38:42.909Z,1014.81
2024-01-07T00:39:42.929Z,1014.80
2024-01-07T00:40:42.904Z,1014.85
2024-01-07T00:41:42.902Z,1014.81
2024-01-07T00:42:42.912Z,1014.98
2024-01-07T00:43:42.909Z,1014.87
2024-01-07T00:44:42.906Z,1014.87
2024-01-07T00:45:42.916Z,1014.93
2024-01-07T00:46:44.937Z,1015.00
2024-01-07T00:47:43.019Z,1014.92
2024-01-07T00:48:43.039Z,1015.00
2024-01-07T00:49:42.988Z,1014.99
2024-01-07T00:50:42.917Z,1015.00
2024-01-07T00:51:42.927Z,1014.97
2024-01-07T00:52:42.891Z,1015.01
2024-01-07T00:53:42.890Z,1014.98
2024-01-07T00:54:42.951Z,1015.01
2024-01-07T00:55:42.894Z,1014.92
2024-01-07T00:56:42.898Z,1015.02
2024-01-07T00:57:42.912Z,1015.04
2024-01-07T00:58:42.886Z,1015.11
2024-01-07T00:59:42.881Z,1015.05
2024-01-07T01:00:43.072Z,1015.09
2024-01-07T01:01:42.953Z,1015.05
2024-01-07T01:02:42.895Z,1015.12
2024-01-07T01:03:42.982Z,1015.19
2024-01-07T01:04:43.072Z,1015.19
2024-01-07T01:05:42.931Z,1015.19
2024-01-07T01:06:43.032Z,1015.18
2024-01-07T01:07:42.879Z,1015.18
2024-01-07T01:08:42.902Z,1015.18
2024-01-07T01:09:42.905Z,1015.21
2024-01-07T01:10:42.871Z,1015.27
2024-01-07T01:11:42.877Z,1015.22
2024-01-07T01:12:42.899Z,1015.22
2024-01-07T01:13:42.899Z,1015.31
2024-01-07T01:14:42.868Z,1015.37
2024-01-07T01:15:42.909Z,1015.32
2024-01-07T01:16:42.881Z,1015.35
2024-01-07T01:17:42.975Z,1015.36
2024-01-07T01:18:42.964Z,1015.29
2024-01-07T01:19:42.951Z,1015.35
2024-01-07T01:20:42.880Z,1015.38
2024-01-07T01:21:42.910Z,1015.38
2024-01-07T01:22:42.872Z,1015.33
2024-01-07T01:23:42.904Z,1015.39
2024-01-07T01:24:42.956Z,1015.35
2024-01-07T01:25:42.873Z,1015.40
2024-01-07T01:26:42.856Z,1015.46
2024-01-07T01:27:42.903Z,1015.45
2024-01-07T01:28:42.851Z,1015.50
2024-01-07T01:29:42.857Z,1015.49
2024-01-07T01:30:43.039Z,1015.52
2024-01-07T01:31:43.053Z,1015.60
2024-01-07T01:32:42.970Z,1015.49
2024-01-07T01:33:42.990Z,1015.54
2024-01-07T01:34:42.871Z,1015.56
2024-01-07T01:35:42.858Z,1015.53
2024-01-07T01:36:42.876Z,1015.57
2024-01-07T01:37:42.851Z,1015.54
2024-01-07T01:38:42.844Z,1015.48
2024-01-07T01:39:42.936Z,1015.59
2024-01-07T01:40:42.843Z,1015.61
2024-01-07T01:41:42.841Z,1015.64
2024-01-07T01:42:42.863Z,1015.59
2024-01-07T01:43:42.833Z,1015.64
2024-01-07T01:44:42.834Z,1015.67
2024-01-07T01:45:42.869Z,1015.65
2024-01-07T01:46:42.851Z,1015.68
2024-01-07T01:47:42.920Z,1015.66
2024-01-07T01:48:42.884Z,1015.65
2024-01-07T01:49:42.908Z,1015.75
2024-01-07T01:50:42.837Z,1015.68
2024-01-07T01:51:42.896Z,1015.69
2024-01-07T01:52:42.890Z,1015.78
2024-01-07T01:53:42.822Z,1015.63
2024-01-07T01:54:42.854Z,1015.67
2024-01-07T01:55:42.816Z,1015.72
2024-01-07T01:56:42.818Z,1015.70
2024-01-07T01:57:42.838Z,1015.68
2024-01-07T01:58:42.818Z,1015.74
2024-01-07T01:59:42.826Z,1015.82
2024-01-07T02:00:42.883Z,1015.70
2024-01-07T02:01:42.910Z,1015.81
2024-01-07T02:02:42.873Z,1015.77
2024-01-07T02:03:42.851Z,1015.81
2024-01-07T02:04:42.881Z,1015.82
2024-01-07T02:05:42.825Z,1015.82
2024-01-07T02:06:42.844Z,1015.86
2024-01-07T02:07:42.806Z,1015.91
2024-01-07T02:08:42.801Z,1015.81
2024-01-07T02:09:42.845Z,1015.87
2024-01-07T02:10:43.477Z,1015.97
2024-01-07T02:11:42.796Z,1015.91
2024-01-07T02:12:42.825Z,1015.88
2024-01-07T02:13:42.796Z,1015.89
2024-01-07T02:14:42.801Z,1015.83
2024-01-07T02:15:42.833Z,1015.96
2024-01-07T02:16:42.793Z,1015.88
2024-01-07T02:17:42.820Z,1015.86
2024-01-07T02:18:42.829Z,1015.86
2024-01-07T02:19:42.868Z,1015.86
2024-01-07T02:20:42.794Z,1015.86
2024-01-07T02:21:42.802Z,1015.87
2024-01-07T02:22:42.788Z,1015.87
2024-01-07T02:23:42.782Z,1015.85
2024-01-07T02:24:42.795Z,1015.84
2024-01-07T02:25:42.783Z,1015.82
2024-01-07T02:26:42.796Z,1015.93
2024-01-07T02:27:42.801Z,1015.82
2024-01-07T02:28:42.794Z,1015.81
2024-01-07T02:29:42.776Z,1015.87
2024-01-07T02:30:42.854Z,1015.83
2024-01-07T02:31:42.899Z,1015.85
2024-01-07T02:32:42.904Z,1015.89
2024-01-07T02:33:42.934Z,1015.83
2024-01-07T02:34:42.802Z,1015.82
2024-01-07T02:35:42.770Z,1015.84
2024-01-07T02:36:42.810Z,1015.82
2024-01-07T02:37:42.772Z,1015.77
2024-01-07T02:38:42.769Z,1015.96
2024-01-07T02:39:45.693Z,1015.88
2024-01-07T02:40:42.765Z,1015.92
2024-01-07T02:41:42.762Z,1015.95
2024-01-07T02:42:42.777Z,1015.96
2024-01-07T02:43:42.766Z,1015.92
2024-01-07T02:44:42.760Z,1015.94
2024-01-07T02:45:42.784Z,1015.96
2024-01-07T02:46:42.777Z,1015.95
2024-01-07T02:47:42.762Z,1016.02
2024-01-07T02:48:42.832Z,1015.95
2024-01-07T02:49:42.809Z,1015.96
2024-01-07T02:50:42.750Z,1015.93
2024-01-07T02:51:42.774Z,1016.01
2024-01-07T02:52:42.747Z,1015.95
2024-01-07T02:53:42.746Z,1016.05
2024-01-07T02:54:42.764Z,1016.06
2024-01-07T02:55:42.743Z,1016.07
2024-01-07T02:56:42.755Z,1016.07
2024-01-07T02:57:42.814Z,1016.16
2024-01-07T02:58:42.741Z,1016.04
2024-01-07T02:59:42.735Z,1016.04
2024-01-07T03:00:42.787Z,1016.17
2024-01-07T03:01:42.832Z,1016.20
2024-01-07T03:02:42.789Z,1016.18
2024-01-07T03:03:42.753Z,1016.20
2024-01-07T03:04:42.742Z,1016.10
2024-01-07T03:05:42.748Z,1016.15
2024-01-07T03:06:42.773Z,1016.16
2024-01-07T03:07:42.750Z,1016.18
2024-01-07T03:08:42.724Z,1016.23
2024-01-07T03:09:42.907Z,1016.20
2024-01-07T03:10:42.722Z,1016.20
2024-01-07T03:11:42.732Z,1016.29
2024-01-07T03:12:42.764Z,1016.19
2024-01-07T03:13:42.717Z,1016.20
2024-01-07T03:14:42.731Z,1016.21
2024-01-07T03:15:42.734Z,1016.21
2024-01-07T03:16:42.724Z,1016.28
2024-01-07T03:17:42.814Z,1016.28
2024-01-07T03:18:42.845Z,1016.24
2024-01-07T03:19:42.782Z,1016.28
2024-01-07T03:20:42.707Z,1016.27
2024-01-07T03:21:42.745Z,1016.27
2024-01-07T03:22:42.713Z,1016.24
2024-01-07T03:23:42.725Z,1016.38
2024-01-07T03:24:42.751Z,1016.33
2024-01-07T03:25:42.710Z,1016.31
2024-01-07T03:26:42.702Z,1016.37
2024-01-07T03:27:42.723Z,1016.46
2024-01-07T03:28:42.702Z,1016.38
2024-01-07T03:29:42.741Z,1016.37
2024-01-07T03:30:42.796Z,1016.49
2024-01-07T03:31:42.726Z,1016.39
2024-01-07T03:32:42.716Z,1016.50
2024-01-07T03:33:42.798Z,1016.38
2024-01-07T03:34:42.756Z,1016.40
2024-01-07T03:35:42.688Z,1016.46
2024-01-07T03:36:42.704Z,1016.45
2024-01-07T03:37:42.689Z,1016.36
2024-01-07T03:38:42.708Z,1016.39
2024-01-07T03:39:42.692Z,1016.46
2024-01-07T03:40:42.679Z,1016.52
2024-01-07T03:41:42.704Z,1016.47
2024-01-07T03:42:42.689Z,1016.58
2024-01-07T03:43:42.689Z,1016.52
2024-01-07T03:44:42.679Z,1016.48
2024-01-07T03:45:42.710Z,1016.49
2024-01-07T03:46:42.672Z,1016.57
2024-01-07T03:47:42.732Z,1016.51
2024-01-07T03:48:42.803Z,1016.52
2024-01-07T03:49:42.715Z,1016.58
2024-01-07T03:50:42.673Z,1016.62
2024-01-07T03:51:42.681Z,1016.51
2024-01-07T03:52:42.661Z,1016.59
2024-01-07T03:53:42.665Z,1016.54
2024-01-07T03:54:42.681Z,1016.54
2024-01-07T03:55:42.677Z,1016.66
2024-01-07T03:56:42.672Z,1016.67
2024-01-07T03:57:42.708Z,1016.65
2024-01-07T03:58:42.660Z,1016.53
2024-01-07T03:59:42.654Z,1016.62
2024-01-07T04:00:42.752Z,1016.61
2024-01-07T04:01:42.728Z,1016.48
2024-01-07T04:02:42.640Z,1016.65
2024-01-07T04:03:42.775Z,1016.65
2024-01-07T04:04:42.637Z,1016.66
2024-01-07T04:05:42.648Z,1016.77
2024-01-07T04:06:42.687Z,1016.66
2024-01-07T04:07:42.650Z,1016.70
2024-01-07T04:08:42.630Z,1016.75
2024-01-07T04:09:42.656Z,1016.69
2024-01-07T04:10:42.636Z,1016.70
2024-01-07T04:11:42.622Z,1016.74
2024-01-07T04:12:42.642Z,1016.75
2024-01-07T04:13:42.620Z,1016.77
2024-01-07T04:14:42.620Z,1016.79
2024-01-07T04:15:42.674Z,1016.77
2024-01-07T04:16:42.618Z,1016.85
2024-01-07T04:17:42.789Z,1016.83
2024-01-07T04:18:42.694Z,1016.94
2024-01-07T04:19:42.763Z,1016.86
2024-01-07T04:20:42.607Z,1016.93
2024-01-07T04:21:42.610Z,1016.89
2024-01-07T04:22:42.604Z,1016.90
2024-01-07T04:23:42.603Z,1016.98
2024-01-07T04:24:42.640Z,1017.03
2024-01-07T04:25:42.595Z,1017.04
2024-01-07T04:26:42.622Z,1016.99
2024-01-07T04:27:42.646Z,1017.13
2024-01-07T04:28:42.614Z,1017.12
2024-01-07T04:29:42.602Z,1017.15
2024-01-07T04:30:42.700Z,1017.17
2024-01-07T04:31:42.654Z,1017.22
2024-01-07T04:32:42.599Z,1017.23
2024-01-07T04:33:42.634Z,1017.22
2024-01-07T04:34:42.757Z,1017.14
2024-01-07T04:35:42.592Z,1017.27
2024-01-07T04:36:42.615Z,1017.20
2024-01-07T04:37:42.576Z,1017.22
2024-01-07T04:38:42.582Z,1017.19
2024-01-07T04:39:42.610Z,1017.16
2024-01-07T04:40:42.574Z,1017.28
2024-01-07T04:41:43.794Z,1017.23
2024-01-07T04:42:42.597Z,1017.27
2024-01-07T04:43:42.565Z,1017.14
2024-01-07T04:44:42.562Z,1017.21
2024-01-07T04:45:42.593Z,1017.29
2024-01-07T04:46:42.574Z,1017.29
2024-01-07T04:47:42.604Z,1017.32
2024-01-07T04:48:42.579Z,1017.31
2024-01-07T04:49:42.614Z,1017.37
2024-01-07T04:50:42.554Z,1017.25
2024-01-07T04:51:42.573Z,1017.27
2024-01-07T04:52:42.555Z,1017.23
2024-01-07T04:53:42.571Z,1017.20
2024-01-07T04:54:42.564Z,1017.25
2024-01-07T04:55:42.545Z,1017.26
2024-01-07T04:56:42.537Z,1017.31
2024-01-07T04:57:42.547Z,1017.31
2024-01-07T04:58:42.536Z,1017.39
2024-01-07T04:59:42.534Z,1017.46
2024-01-07T05:00:42.556Z,1017.36
2024-01-07T05:01:42.585Z,1017.27
2024-01-07T05:02:42.533Z,1017.40
2024-01-07T05:03:42.599Z,1017.40
2024-01-07T05:04:42.550Z,1017.33
2024-01-07T05:05:42.524Z,1017.30
2024-01-07T05:06:42.646Z,1017.33
2024-01-07T05:07:42.528Z,1017.37
2024-01-07T05:08:42.517Z,1017.43
2024-01-07T05:09:42.599Z,1017.39
2024-01-07T05:10:42.516Z,1017.42
2024-01-07T05:11:42.520Z,1017.39
2024-01-07T05:12:42.518Z,1017.41
2024-01-07T05:13:42.518Z,1017.39
2024-01-07T05:14:42.515Z,1017.38
2024-01-07T05:15:42.557Z,1017.46
2024-01-07T05:16:42.506Z,1017.44
2024-01-07T05:17:42.511Z,1017.45
2024-01-07T05:18:42.603Z,1017.52
2024-01-07T05:19:42.571Z,1017.52
2024-01-07T05:20:42.503Z,1017.55
2024-01-07T05:21:42.554Z,1017.51
2024-01-07T05:22:42.504Z,1017.50
2024-01-07T05:23:42.496Z,1017.53
2024-01-07T05:24:42.529Z,1017.56
2024-01-07T05:25:42.490Z,1017.60
2024-01-07T05:26:42.485Z,1017.61
2024-01-07T05:27:42.607Z,1017.63
2024-01-07T05:28:42.482Z,1017.64
2024-01-07T05:29:42.485Z,1017.71
2024-01-07T05:30:42.536Z,1017.68
2024-01-07T05:31:42.607Z,1017.74
2024-01-07T05:32:42.585Z,1017.79
2024-01-07T05:33:42.594Z,1017.77
2024-01-07T05:34:42.492Z,1017.72
2024-01-07T05:35:42.472Z,1017.74
2024-01-07T05:36:42.509Z,1017.76
2024-01-07T05:37:42.482Z,1017.80
2024-01-07T05:38:42.470Z,1017.77
2024-01-07T05:39:42.535Z,1017.77
2024-01-07T05:40:42.470Z,1017.76
2024-01-07T05:41:42.460Z,1017.84
2024-01-07T05:42:42.510Z,1017.79
2024-01-07T05:43:42.449Z,1017.84
2024-01-07T05:44:42.446Z,1017.86
2024-01-07T05:45:42.502Z,1017.90
2024-01-07T05:46:42.445Z,1017.92
2024-01-07T05:47:42.451Z,1017.89
2024-01-07T05:48:42.555Z,1017.89
2024-01-07T05:49:42.507Z,1017.88
2024-01-07T05:50:42.437Z,1017.90
2024-01-07T05:51:42.541Z,1017.88
2024-01-07T05:52:42.426Z,1017.91
2024-01-07T05:53:42.433Z,1017.93
2024-01-07T05:54:42.485Z,1017.95
2024-01-07T05:55:42.434Z,1017.95
2024-01-07T05:56:42.439Z,1017.97
2024-01-07T05:57:42.462Z,1017.96
2024-01-07T05:58:42.422Z,1017.98
2024-01-07T05:59:42.416Z,1017.99
2024-01-07T06:00:42.477Z,1017.98
2024-01-07T06:01:42.445Z,1017.97
2024-01-07T06:02:42.469Z,1017.99
2024-01-07T06:03:42.566Z,1018.02
2024-01-07T06:04:42.501Z,1018.09
2024-01-07T06:05:42.424Z,1018.02
2024-01-07T06:06:42.490Z,1018.07
2024-01-07T06:07:42.477Z,1018.11
2024-01-07T06:08:42.401Z,1018.07
2024-01-07T06:09:42.498Z,1018.09
2024-01-07T06:10:42.407Z,1018.10
2024-01-07T06:11:42.398Z,1018.16
2024-01-07T06:12:42.400Z,1018.16
2024-01-07T06:13:42.392Z,1018.10
2024-01-07T06:14:42.386Z,1018.14
2024-01-07T06:15:42.416Z,1018.17
2024-01-07T06:16:42.389Z,1018.19
2024-01-07T06:17:42.474Z,1018.11
2024-01-07T06:18:42.502Z,1018.18
2024-01-07T06:19:42.432Z,1018.22
2024-01-07T06:20:42.389Z,1018.21
2024-01-07T06:21:42.428Z,1018.11
2024-01-07T06:22:42.375Z,1018.17
2024-01-07T06:23:42.379Z,1018.18
2024-01-07T06:24:42.387Z,1018.14
2024-01-07T06:25:42.402Z,1018.12
2024-01-07T06:26:42.370Z,1018.12
2024-01-07T06:27:42.396Z,1018.20
2024-01-07T06:28:42.377Z,1018.16
2024-01-07T06:29:42.360Z,1018.15
2024-01-07T06:30:42.412Z,1018.19
2024-01-07T06:31:42.401Z,1018.16
2024-01-07T06:32:42.438Z,1018.14
2024-01-07T06:33:42.472Z,1018.16
2024-01-07T06:34:42.376Z,1018.22
2024-01-07T06:35:42.349Z,1018.23
2024-01-07T06:36:42.439Z,1018.23
2024-01-07T06:37:42.347Z,1018.24
2024-01-07T06:38:42.344Z,1018.28
2024-01-07T06:39:42.432Z,1018.27
2024-01-07T06:40:42.341Z,1018.29
2024-01-07T06:41:42.339Z,1018.27
2024-01-07T06:42:42.457Z,1018.28
2024-01-07T06:43:42.333Z,1018.28
2024-01-07T06:44:42.336Z,1018.24
2024-01-07T06:45:42.393Z,1018.36
2024-01-07T06:46:42.344Z,1018.32
2024-01-07T06:47:42.393Z,1018.35
2024-01-07T06:48:46.924Z,1018.38
2024-01-07T06:49:42.473Z,1018.38
2024-01-07T06:50:42.339Z,1018.44
2024-01-07T06:51:42.359Z,1018.44
2024-01-07T06:52:42.322Z,1018.42
2024-01-07T06:53:42.314Z,1018.44
2024-01-07T06:54:42.331Z,1018.57
2024-01-07T06:55:42.313Z,1018.47
2024-01-07T06:56:42.315Z,1018.60
2024-01-07T06:57:42.318Z,1018.53
2024-01-07T06:58:42.303Z,1018.56
2024-01-07T06:59:42.306Z,1018.54
2024-01-07T07:00:42.424Z,1018.60
2024-01-07T07:01:42.351Z,1018.61
2024-01-07T07:02:42.304Z,1018.63
2024-01-07T07:03:42.424Z,1018.64
2024-01-07T07:04:42.375Z,1018.69
2024-01-07T07:05:42.347Z,1018.63
2024-01-07T07:06:42.330Z,1018.68
2024-01-07T07:07:42.301Z,1018.69
2024-01-07T07:08:42.286Z,1018.71
2024-01-07T07:09:42.350Z,1018.70
2024-01-07T07:10:42.285Z,1018.77
2024-01-07T07:11:42.286Z,1018.76
2024-01-07T07:12:42.340Z,1018.78
2024-01-07T07:13:42.276Z,1018.80
2024-01-07T07:14:42.276Z,1018.78
2024-01-07T07:15:42.313Z,1018.80
2024-01-07T07:16:42.271Z,1018.79
2024-01-07T07:17:42.316Z,1018.84
2024-01-07T07:18:42.322Z,1018.88
2024-01-07T07:19:45.465Z,1018.86
2024-01-07T07:20:42.266Z,1018.92
2024-01-07T07:21:42.292Z,1018.87
2024-01-07T07:22:42.258Z,1018.95
2024-01-07T07:23:42.260Z,1018.90
2024-01-07T07:24:42.278Z,1019.01
2024-01-07T07:25:42.258Z,1018.92
2024-01-07T07:26:42.254Z,1018.92
2024-01-07T07:27:42.286Z,1018.96
2024-01-07T07:28:42.249Z,1018.97
2024-01-07T07:29:42.249Z,1018.97
2024-01-07T07:30:42.345Z,1018.96
2024-01-07T07:31:42.322Z,1018.95
2024-01-07T07:32:42.280Z,1019.02
2024-01-07T07:33:42.433Z,1019.02
2024-01-07T07:34:42.322Z,1019.11
2024-01-07T07:35:42.245Z,1019.05
2024-01-07T07:36:42.275Z,1019.02
2024-01-07T07:37:42.245Z,1019.07
2024-01-07T07:38:42.250Z,1019.01
2024-01-07T07:39:42.255Z,1019.03
2024-01-07T07:40:42.236Z,1019.09
2024-01-07T07:41:42.239Z,1019.07
2024-01-07T07:42:42.297Z,1019.08
2024-01-07T07:43:42.233Z,1019.09
2024-01-07T07:44:42.222Z,1019.19
2024-01-07T07:45:42.262Z,1019.16
2024-01-07T07:46:42.218Z,1019.27
2024-01-07T07:47:42.267Z,1019.24
2024-01-07T07:48:42.268Z,1019.27
2024-01-07T07:49:42.323Z,1019.29
2024-01-07T07:50:42.214Z,1019.28
2024-01-07T07:51:42.231Z,1019.28
2024-01-07T07:52:42.228Z,1019.27
2024-01-07T07:53:42.232Z,1019.28
2024-01-07T07:54:42.241Z,1019.32
2024-01-07T07:55:42.206Z,1019.33
2024-01-07T07:56:42.202Z,1019.36
2024-01-07T07:57:42.258Z,1019.43
2024-01-07T07:58:42.202Z,1019.33
2024-01-07T07:59:42.197Z,1019.32
2024-01-07T08:00:42.231Z,1019.31
2024-01-07T08:01:42.239Z,1019.39
2024-01-07T08:02:42.191Z,1019.35
2024-01-07T08:03:42.293Z,1019.34
2024-01-07T08:04:42.204Z,1019.26
2024-01-07T08:05:42.405Z,1019.31
2024-01-07T08:06:42.239Z,1019.34
2024-01-07T08:07:42.192Z,1019.29
2024-01-07T08:08:42.189Z,1019.39
2024-01-07T08:09:42.200Z,1019.37
2024-01-07T08:10:42.179Z,1019.32
2024-01-07T08:11:42.171Z,1019.30
2024-01-07T08:12:42.232Z,1019.34
2024-01-07T08:13:42.201Z,1019.29
2024-01-07T08:14:42.211Z,1019.26
2024-01-07T08:15:42.210Z,1019.34
2024-01-07T08:16:42.162Z,1019.38
2024-01-07T08:17:42.172Z,1019.39
2024-01-07T08:18:42.235Z,1019.47
2024-01-07T08:19:42.320Z,1019.43
2024-01-07T08:20:42.170Z,1019.45
2024-01-07T08:21:42.229Z,1019.45
2024-01-07T08:22:42.170Z,1019.48
2024-01-07T08:23:42.155Z,1019.51
2024-01-07T08:24:42.189Z,1019.49
2024-01-07T08:25:42.163Z,1019.51
2024-01-07T08:26:42.156Z,1019.55
2024-01-07T08:27:42.192Z,1019.50
2024-01-07T08:28:42.140Z,1019.57
2024-01-07T08:29:42.144Z,1019.51
2024-01-07T08:30:42.201Z,1019.53
2024-01-07T08:31:42.191Z,1019.53
2024-01-07T08:32:42.189Z,1019.58
2024-01-07T08:33:42.244Z,1019.59
2024-01-07T08:34:42.241Z,1019.56
2024-01-07T08:35:42.165Z,1019.57
2024-01-07T08:36:42.163Z,1019.62
2024-01-07T08:37:42.127Z,1019.62
2024-01-07T08:38:42.153Z,1019.68
2024-01-07T08:39:42.132Z,1019.71
2024-01-07T08:40:42.120Z,1019.72
2024-01-07T08:41:42.118Z,1019.75
2024-01-07T08:42:42.188Z,1019.75
2024-01-07T08:43:42.115Z,1019.76
2024-01-07T08:44:42.118Z,1019.73
2024-01-07T08:45:42.128Z,1019.70
2024-01-07T08:46:42.113Z,1019.77
2024-01-07T08:47:45.053Z,1019.75
2024-01-07T08:48:42.270Z,1019.74
2024-01-07T08:49:42.183Z,1019.75
2024-01-07T08:50:42.108Z,1019.78
2024-01-07T08:51:42.130Z,1019.76
2024-01-07T08:52:42.104Z,1019.74
2024-01-07T08:53:42.106Z,1019.78
2024-01-07T08:54:42.130Z,1019.75
2024-01-07T08:55:42.107Z,1019.76
2024-01-07T08:56:42.100Z,1019.77
2024-01-07T08:57:42.119Z,1019.79
2024-01-07T08:58:42.106Z,1019.77
2024-01-07T08:59:42.097Z,1019.77
2024-01-07T09:00:42.220Z,1019.80
2024-01-07T09:01:42.155Z,1019.77
2024-01-07T09:02:44.032Z,1019.81
2024-01-07T09:03:42.145Z,1019.78
2024-01-07T09:04:42.085Z,1019.79
2024-01-07T09:05:42.134Z,1019.81
2024-01-07T09:06:42.133Z,1019.80
2024-01-07T09:07:42.129Z,1019.82
2024-01-07T09:08:42.099Z,1019.79
2024-01-07T09:09:42.100Z,1019.74
2024-01-07T09:10:42.094Z,1019.74
2024-01-07T09:11:42.078Z,1019.75
2024-01-07T09:12:42.129Z,1019.75
2024-01-07T09:13:44.305Z,1019.79
2024-01-07T09:14:42.075Z,1019.75
2024-01-07T09:15:42.121Z,1019.74
2024-01-07T09:16:42.080Z,1019.77
2024-01-07T09:17:42.140Z,1019.81
2024-01-07T09:18:42.329Z,1019.79
2024-01-07T09:19:42.129Z,1019.74
2024-01-07T09:20:42.068Z,1019.71
2024-01-07T09:21:42.089Z,1019.71
2024-01-07T09:22:42.066Z,1019.76
2024-01-07T09:23:42.086Z,1019.81
2024-01-07T09:24:42.112Z,1019.76
2024-01-07T09:25:42.062Z,1019.83
2024-01-07T09:26:42.060Z,1019.82
2024-01-07T09:27:42.086Z,1019.80
2024-01-07T09:28:42.058Z,1019.84
2024-01-07T09:29:42.054Z,1019.85
2024-01-07T09:30:42.131Z,1019.84
2024-01-07T09:31:42.076Z,1019.86
2024-01-07T09:32:42.067Z,1019.86
2024-01-07T09:33:42.137Z,1019.90
2024-01-07T09:34:42.080Z,1019.91
2024-01-07T09:35:42.047Z,1019.79
2024-01-07T09:36:42.057Z,1019.86
2024-01-07T09:37:42.046Z,1019.84
2024-01-07T09:38:42.046Z,1019.88
2024-01-07T09:39:42.093Z,1019.86
2024-01-07T09:40:42.048Z,1019.86
2024-01-07T09:41:42.042Z,1019.86
2024-01-07T09:42:42.082Z,1019.90
2024-01-07T09:43:42.040Z,1019.84
2024-01-07T09:44:42.036Z,1019.90
2024-01-07T09:45:42.048Z,1019.87
2024-01-07T09:46:42.036Z,1019.88
2024-01-07T09:47:42.078Z,1019.91
2024-01-07T09:48:42.124Z,1019.90
2024-01-07T09:49:42.084Z,1019.88
2024-01-07T09:50:45.112Z,1019.87
2024-01-07T09:51:42.047Z,1019.95
2024-01-07T09:52:42.039Z,1019.86
2024-01-07T09:53:42.052Z,1019.87
2024-01-07T09:54:42.259Z,1019.86
2024-01-07T09:55:42.022Z,1019.86
2024-01-07T09:56:42.017Z,1019.85
2024-01-07T09:57:42.034Z,1019.83
2024-01-07T09:58:42.020Z,1019.80
2024-01-07T09:59:42.014Z,1019.84
2024-01-07T10:00:42.061Z,1019.88
2024-01-07T10:01:42.050Z,1019.82
2024-01-07T10:02:42.035Z,1019.80
2024-01-07T10:03:42.048Z,1019.76
2024-01-07T10:04:42.042Z,1019.76
2024-01-07T10:05:42.043Z,1019.77
2024-01-07T10:06:42.040Z,1019.82
2024-01-07T10:07:42.005Z,1019.73
2024-01-07T10:08:41.994Z,1019.74
2024-01-07T10:09:42.014Z,1019.76
2024-01-07T10:10:42.002Z,1019.75
2024-01-07T10:11:42.017Z,1019.86
2024-01-07T10:12:42.020Z,1019.96
2024-01-07T10:13:41.992Z,1019.89
2024-01-07T10:14:42.048Z,1019.88
2024-01-07T10:15:42.026Z,1019.87
2024-01-07T10:16:41.989Z,1019.84
2024-01-07T10:17:42.040Z,1019.85
2024-01-07T10:18:42.136Z,1019.83
2024-01-07T10:19:42.039Z,1019.86
2024-01-07T10:20:44.195Z,1019.91
2024-01-07T10:21:42.010Z,1019.88
2024-01-07T10:22:41.980Z,1019.90
2024-01-07T10:23:42.002Z,1019.86
2024-01-07T10:24:42.308Z,1019.95
2024-01-07T10:25:41.984Z,1019.84
2024-01-07T10:26:42.031Z,1019.83
2024-01-07T10:27:41.987Z,1019.90
2024-01-07T10:28:41.992Z,1019.91
2024-01-07T10:29:41.979Z,1019.90
2024-01-07T10:30:42.041Z,1019.90
2024-01-07T10:31:42.033Z,1019.85
2024-01-07T10:32:44.073Z,1019.88
2024-01-07T10:33:42.213Z,1019.90
2024-01-07T10:34:42.016Z,1019.90
2024-01-07T10:35:41.964Z,1019.88
2024-01-07T10:36:42.020Z,1019.83
2024-01-07T10:37:41.970Z,1019.90
2024-01-07T10:38:44.562Z,1019.91
2024-01-07T10:39:42.003Z,1019.87
2024-01-07T10:40:41.965Z,1019.89
2024-01-07T10:41:41.956Z,1019.90
2024-01-07T10:42:42.034Z,1019.83
2024-01-07T10:43:41.953Z,1019.83
2024-01-07T10:44:42.029Z,1019.85
2024-01-07T10:45:42.006Z,1019.81
2024-01-07T10:46:41.952Z,1019.82
2024-01-07T10:47:41.974Z,1019.85
2024-01-07T10:48:42.009Z,1019.90
2024-01-07T10:49:42.087Z,1019.86
2024-01-07T10:50:41.951Z,1019.88
2024-01-07T10:51:41.966Z,1019.88
2024-01-07T10:52:41.969Z,1019.83
2024-01-07T10:53:41.943Z,1019.91
2024-01-07T10:54:41.978Z,1019.86
2024-01-07T10:55:41.938Z,1019.86
2024-01-07T10:56:41.940Z,1019.90
2024-01-07T10:57:42.080Z,1019.88
2024-01-07T10:58:41.946Z,1019.87
2024-01-07T10:59:41.928Z,1019.91
2024-01-07T11:00:42.025Z,1019.82
2024-01-07T11:01:42.013Z,1019.82
2024-01-07T11:02:41.927Z,1019.79
2024-01-07T11:03:42.057Z,1019.76
2024-01-07T11:04:41.956Z,1019.76
2024-01-07T11:05:42.032Z,1019.75
2024-01-07T11:06:41.946Z,1019.78
2024-01-07T11:07:41.925Z,1019.75
2024-01-07T11:08:41.926Z,1019.80
2024-01-07T11:09:41.953Z,1019.77
2024-01-07T11:10:48.998Z,1019.76
2024-01-07T11:11:41.916Z,1019.73
2024-01-07T11:12:41.931Z,1019.69
2024-01-07T11:13:41.936Z,1019.64
2024-01-07T11:14:41.923Z,1019.63
2024-01-07T11:15:41.935Z,1019.66
2024-01-07T11:16:41.910Z,1019.65
2024-01-07T11:17:41.932Z,1019.62
2024-01-07T11:18:42.181Z,1019.65
2024-01-07T11:19:42.005Z,1019.66
2024-01-07T11:20:41.906Z,1019.62
2024-01-07T11:21:41.930Z,1019.58
2024-01-07T11:22:41.902Z,1019.58
2024-01-07T11:23:41.911Z,1019.60
2024-01-07T11:24:41.997Z,1019.64
2024-01-07T11:25:41.901Z,1019.61
2024-01-07T11:26:41.935Z,1019.61
2024-01-07T11:27:41.949Z,1019.61
2024-01-07T11:28:41.898Z,1019.60
2024-01-07T11:29:41.908Z,1019.65
2024-01-07T11:30:41.940Z,1019.62
2024-01-07T11:31:42.052Z,1019.58
2024-01-07T11:32:41.921Z,1019.62
2024-01-07T11:33:41.928Z,1019.63
2024-01-07T11:34:41.973Z,1019.65
2024-01-07T11:35:41.886Z,1019.67
2024-01-07T11:36:41.975Z,1019.67
2024-01-07T11:37:41.886Z,1019.63
2024-01-07T11:38:41.885Z,1019.56
2024-01-07T11:39:41.918Z,1019.56
2024-01-07T11:40:41.881Z,1019.54
2024-01-07T11:41:41.879Z,1019.60
2024-01-07T11:42:41.954Z,1019.63
2024-01-07T11:43:41.877Z,1019.58
2024-01-07T11:44:41.899Z,1019.60
2024-01-07T11:45:41.902Z,1019.58
2024-01-07T11:46:41.881Z,1019.55
2024-01-07T11:47:41.904Z,1019.56
2024-01-07T11:48:41.928Z,1019.63
2024-01-07T11:49:41.997Z,1019.57
2024-01-07T11:50:42.747Z,1019.60
2024-01-07T11:51:41.889Z,1019.60
2024-01-07T11:52:41.875Z,1019.62
2024-01-07T11:53:41.874Z,1019.59
2024-01-07T11:54:41.874Z,1019.59
2024-01-07T11:55:41.866Z,1019.57
2024-01-07T11:56:41.874Z,1019.53
2024-01-07T11:57:41.871Z,1019.55
2024-01-07T11:58:41.865Z,1019.57
2024-01-07T11:59:44.262Z,1019.57
2024-01-07T12:00:41.942Z,1019.62
2024-01-07T12:01:41.979Z,1019.58
2024-01-07T12:02:41.868Z,1019.62
2024-01-07T12:03:41.905Z,1019.55
2024-01-07T12:04:41.910Z,1019.52
2024-01-07T12:05:44.542Z,1019.49